Time;durP1;ratioP1;P1;durP2;ratioP2;P2;SDS_P1;SDS_P2;PMS_P1;PMS_P2;Temp;Humidity;BMP_temperature;BMP_pressure;BME280_temperature;BME280_humidity;BME280_pressure;Samples;Min_cycle;Max_cycle;Signal;HPM_P1;HPM_P2
2023/01/26 00:01:00;;;;;;;;;;;8.00;99.90;;;;;;5114579;28;19953;-74
2023/01/26 00:03:25;;;;;;;;;;;7.80;99.90;;;;;;5113904;28;19920;-75
2023/01/26 00:05:51;;;;;;;;;;;7.70;99.90;;;;;;5114550;28;19914;-74
2023/01/26 00:08:17;;;;;;;;;;;7.60;99.90;;;;;;5114260;28;19958;-75
2023/01/26 00:10:49;;;;;;;;;;;7.50;99.90;;;;;;5095797;28;19998;-73
2023/01/26 00:13:18;;;;;;;;;;;7.50;99.90;;;;;;5114724;28;20000;-74
2023/01/26 00:15:50;;;;;;;;;;;7.40;99.90;;;;;;5114006;28;19908;-75
2023/01/26 00:18:16;;;;;;;;;;;7.40;99.90;;;;;;5114044;28;20259;-75
2023/01/26 00:20:42;;;;;;;;;;;7.40;99.90;;;;;;5113967;28;19998;-73
2023/01/26 00:23:09;;;;;;;;;;;7.50;99.90;;;;;;5113898;28;19919;-74
2023/01/26 00:25:36;;;;;;;;;;;7.50;99.90;;;;;;5113885;28;19920;-74
2023/01/26 00:28:02;;;;;;;;;;;7.60;99.90;;;;;;5114290;28;19908;-74
2023/01/26 00:30:28;;;;;;;;;;;7.70;99.90;;;;;;5113897;28;19923;-75
2023/01/26 00:32:56;;;;;;;;;;;7.70;99.90;;;;;;5113723;28;20457;-74
2023/01/26 00:35:22;;;;;;;;;;;7.80;99.90;;;;;;5113615;28;19908;-74
2023/01/26 00:37:49;;;;;;;;;;;7.80;99.90;;;;;;5113149;28;20270;-75
2023/01/26 00:40:16;;;;;;;;;;;7.90;99.90;;;;;;5113397;28;19915;-74
2023/01/26 00:42:42;;;;;;;;;;;7.90;99.90;;;;;;5095115;28;19911;-73
2023/01/26 00:45:08;;;;;;;;;;;8.00;99.90;;;;;;5113463;28;19912;-74
2023/01/26 00:47:34;;;;;;;;;;;8.00;99.90;;;;;;5112466;28;20301;-76
2023/01/26 00:50:00;;;;;;;;;;;8.00;99.90;;;;;;5113738;28;19972;-76
2023/01/26 00:52:27;;;;;;;;;;;8.00;99.90;;;;;;5113275;28;19918;-74
2023/01/26 00:54:53;;;;;;;;;;;8.00;99.90;;;;;;5113592;28;19912;-74
2023/01/26 00:57:19;;;;;;;;;;;8.10;99.90;;;;;;5113335;28;19908;-74
2023/01/26 00:59:45;;;;;;;;;;;8.10;99.90;;;;;;5113459;28;20361;-74
2023/01/26 01:02:11;;;;;;;;;;;8.10;99.90;;;;;;5113098;28;20271;-74
2023/01/26 01:04:37;;;;;;;;;;;8.10;99.90;;;;;;5112734;28;19973;-75
2023/01/26 01:07:02;;;;;;;;;;;8.10;99.90;;;;;;5113182;28;19918;-75
2023/01/26 01:09:28;;;;;;;;;;;8.10;99.90;;;;;;5112894;28;19965;-75
2023/01/26 01:11:54;;;;;;;;;;;8.00;99.90;;;;;;5113010;28;20283;-75
2023/01/26 01:14:21;;;;;;;;;;;8.00;99.90;;;;;;5112801;28;19918;-75
2023/01/26 01:16:46;;;;;;;;;;;8.00;99.90;;;;;;5113098;28;19908;-73
2023/01/26 01:19:14;;;;;;;;;;;7.90;99.90;;;;;;5112664;28;19908;-73
2023/01/26 01:21:40;;;;;;;;;;;7.80;99.90;;;;;;5112628;28;20371;-74
2023/01/26 01:24:06;;;;;;;;;;;7.70;99.90;;;;;;5112983;28;19927;-75
2023/01/26 01:26:32;;;;;;;;;;;7.60;99.90;;;;;;5112751;28;19908;-74
2023/01/26 01:28:57;;;;;;;;;;;7.60;99.90;;;;;;5112805;28;19960;-71
2023/01/26 01:31:24;;;;;;;;;;;7.50;99.90;;;;;;5113047;28;20255;-74
2023/01/26 01:33:53;;;;;;;;;;;7.50;99.90;;;;;;5112512;28;19931;-74
2023/01/26 01:36:23;;;;;;;;;;;7.40;99.90;;;;;;5112737;28;19915;-74
2023/01/26 01:38:49;;;;;;;;;;;7.50;99.90;;;;;;5112425;28;19965;-75
2023/01/26 01:41:17;;;;;;;;;;;7.40;99.90;;;;;;5112614;28;20359;-75
2023/01/26 01:43:43;;;;;;;;;;;7.50;99.90;;;;;;5112563;28;19923;-74
2023/01/26 01:46:28;;;;;;;;;;;7.50;99.90;;;;;;5112582;28;19911;-74
2023/01/26 01:49:06;;;;;;;;;;;7.50;99.90;;;;;;5112166;28;19912;-74
2023/01/26 01:51:35;;;;;;;;;;;7.50;99.90;;;;;;5112466;28;20051;-74
2023/01/26 01:54:04;;;;;;;;;;;7.60;99.90;;;;;;5112061;28;19994;-74
2023/01/26 01:56:31;;;;;;;;;;;7.60;99.90;;;;;;5112251;28;20292;-74
2023/01/26 01:58:59;;;;;;;;;;;7.50;99.90;;;;;;5111981;28;20223;-75
2023/01/26 02:01:25;;;;;;;;;;;7.60;99.90;;;;;;5112609;28;19912;-73
2023/01/26 02:03:53;;;;;;;;;;;7.60;99.90;;;;;;5111583;28;19930;-74
2023/01/26 02:06:32;;;;;;;;;;;7.60;99.90;;;;;;5112617;28;19916;-76
2023/01/26 02:08:59;;;;;;;;;;;7.60;99.90;;;;;;5112037;28;19908;-75
2023/01/26 02:11:27;;;;;;;;;;;7.70;99.90;;;;;;5112150;28;19916;-75
2023/01/26 02:13:53;;;;;;;;;;;7.80;99.90;;;;;;5112033;28;19973;-74
2023/01/26 02:16:19;;;;;;;;;;;7.80;99.90;;;;;;5112093;28;20325;-75
2023/01/26 02:18:45;;;;;;;;;;;7.80;99.90;;;;;;5111794;28;19999;-74
2023/01/26 02:21:17;;;;;;;;;;;7.70;99.90;;;;;;5112063;28;19908;-75
2023/01/26 02:24:00;;;;;;;;;;;7.70;99.90;;;;;;5112082;28;19916;-74
2023/01/26 02:26:26;;;;;;;;;;;7.70;99.90;;;;;;5112468;28;19912;-74
2023/01/26 02:28:53;;;;;;;;;;;7.60;99.90;;;;;;5111822;28;19919;-74
2023/01/26 02:31:19;;;;;;;;;;;7.60;99.90;;;;;;5093602;28;19919;-75
2023/01/26 02:33:44;;;;;;;;;;;7.50;99.90;;;;;;5111783;28;19908;-74
2023/01/26 02:36:21;;;;;;;;;;;7.50;99.90;;;;;;5093386;28;19973;-75
2023/01/26 02:39:05;;;;;;;;;;;7.50;99.90;;;;;;5112221;28;19930;-74
2023/01/26 02:44:16;;;;;;;;;;;7.40;99.90;;;;;;5111950;28;19931;-75
2023/01/26 02:46:42;;;;;;;;;;;7.40;99.90;;;;;;5112045;28;19908;-73
2023/01/26 02:51:52;;;;;;;;;;;7.30;99.90;;;;;;5112348;28;20056;-75
2023/01/26 02:57:01;;;;;;;;;;;7.20;99.90;;;;;;5112118;28;19915;-74
2023/01/26 02:59:27;;;;;;;;;;;7.20;99.90;;;;;;5111653;28;20269;-74
2023/01/26 03:01:54;;;;;;;;;;;7.30;99.90;;;;;;5111933;28;20357;-75
2023/01/26 03:04:20;;;;;;;;;;;7.30;99.90;;;;;;5111175;28;20015;-75
2023/01/26 03:06:46;;;;;;;;;;;7.30;99.90;;;;;;5111817;28;19918;-75
2023/01/26 03:09:11;;;;;;;;;;;7.40;99.90;;;;;;5093724;28;19907;-75
2023/01/26 03:11:43;;;;;;;;;;;7.40;99.90;;;;;;5113944;28;20327;-74
2023/01/26 03:14:09;;;;;;;;;;;7.50;99.90;;;;;;5115593;28;19907;-75
2023/01/26 03:16:35;;;;;;;;;;;7.60;99.90;;;;;;5115385;28;20010;-74
2023/01/26 03:29:42;;;;;;;;;;;7.90;99.90;;;;;;5110883;28;19935;-74
2023/01/26 03:32:08;;;;;;;;;;;7.80;99.90;;;;;;5094064;28;20288;-75
2023/01/26 03:34:34;;;;;;;;;;;7.70;99.90;;;;;;5093874;28;19915;-74
2023/01/26 03:37:00;;;;;;;;;;;7.60;99.90;;;;;;5093862;28;19908;-75
2023/01/26 03:56:20;;;;;;;;;;;7.50;99.90;;;;;;5114255;28;19934;-75
2023/01/26 03:58:47;;;;;;;;;;;7.50;99.90;;;;;;5114383;28;19908;-74
2023/01/26 04:01:19;;;;;;;;;;;7.50;99.90;;;;;;5114594;28;19907;-75
2023/01/26 04:09:16;;;;;;;;;;;7.60;99.90;;;;;;5114853;28;19914;-75
2023/01/26 04:11:42;;;;;;;;;;;7.60;99.90;;;;;;5114916;28;19907;-72
2023/01/26 04:22:25;;;;;;;;;;;7.60;99.90;;;;;;5114750;28;19923;-74
2023/01/26 04:24:51;;;;;;;;;;;7.60;99.90;;;;;;5115310;28;19915;-74
2023/01/26 04:27:17;;;;;;;;;;;7.50;99.90;;;;;;5115356;28;19908;-76
2023/01/26 04:29:43;;;;;;;;;;;7.50;99.90;;;;;;5096815;28;19930;-74
2023/01/26 04:32:11;;;;;;;;;;;7.50;99.90;;;;;;5115394;28;19916;-75
2023/01/26 04:34:37;;;;;;;;;;;7.50;99.90;;;;;;5096292;28;20365;-74
2023/01/26 04:37:05;;;;;;;;;;;7.50;99.90;;;;;;5115425;28;20002;-75
2023/01/26 04:39:31;;;;;;;;;;;7.50;99.90;;;;;;5115303;28;20420;-75
2023/01/26 04:41:56;;;;;;;;;;;7.50;99.90;;;;;;5115317;28;19908;-75
2023/01/26 04:44:22;;;;;;;;;;;7.50;99.90;;;;;;5114728;28;20011;-74
2023/01/26 04:46:49;;;;;;;;;;;7.40;99.90;;;;;;5114755;28;19908;-75
2023/01/26 04:49:15;;;;;;;;;;;7.40;99.90;;;;;;5114726;28;20053;-74
2023/01/26 04:51:41;;;;;;;;;;;7.40;99.90;;;;;;5114635;28;20275;-72
2023/01/26 04:54:09;;;;;;;;;;;7.40;99.90;;;;;;5114875;28;19908;-75
2023/01/26 04:56:35;;;;;;;;;;;7.40;99.90;;;;;;5114363;28;19998;-75
2023/01/26 04:59:05;;;;;;;;;;;7.40;99.90;;;;;;5096308;28;19996;-75
2023/01/26 05:01:31;;;;;;;;;;;7.40;99.90;;;;;;5114598;28;19908;-75
2023/01/26 05:04:00;;;;;;;;;;;7.40;99.90;;;;;;5114313;28;19920;-74
2023/01/26 05:06:26;;;;;;;;;;;7.30;99.90;;;;;;5114417;28;19911;-75
2023/01/26 05:08:52;;;;;;;;;;;7.30;99.90;;;;;;5114446;28;19908;-74
2023/01/26 05:11:18;;;;;;;;;;;7.30;99.90;;;;;;5096037;28;20274;-73
2023/01/26 05:13:45;;;;;;;;;;;7.20;99.90;;;;;;5114246;28;19907;-75
2023/01/26 05:16:13;;;;;;;;;;;7.20;99.90;;;;;;5094265;28;19915;-75
2023/01/26 05:18:42;;;;;;;;;;;7.20;99.90;;;;;;5093996;28;19915;-75
2023/01/26 05:21:09;;;;;;;;;;;7.10;99.90;;;;;;5094562;28;20316;-75
2023/01/26 05:23:35;;;;;;;;;;;7.00;99.90;;;;;;5094289;28;19966;-75
2023/01/26 05:26:01;;;;;;;;;;;7.10;99.90;;;;;;5094016;28;19915;-74
2023/01/26 05:28:27;;;;;;;;;;;7.00;99.90;;;;;;5094022;28;20310;-75
2023/01/26 05:30:53;;;;;;;;;;;7.10;99.90;;;;;;5093946;28;20375;-75
2023/01/26 05:33:20;;;;;;;;;;;7.00;99.90;;;;;;5093390;28;19912;-75
2023/01/26 05:35:49;;;;;;;;;;;7.00;99.90;;;;;;5093809;28;19958;-75
2023/01/26 05:38:15;;;;;;;;;;;6.90;99.90;;;;;;5093788;28;19912;-75
2023/01/26 05:40:40;;;;;;;;;;;6.90;99.90;;;;;;5093967;28;19908;-75
2023/01/26 05:43:07;;;;;;;;;;;6.90;99.90;;;;;;5093823;28;20381;-75
2023/01/26 05:45:33;;;;;;;;;;;6.90;99.90;;;;;;5109386;28;19957;-75
2023/01/26 05:47:59;;;;;;;;;;;6.80;99.90;;;;;;5113932;28;19994;-76
2023/01/26 05:50:25;;;;;;;;;;;6.90;99.90;;;;;;5114082;28;19951;-73
2023/01/26 05:52:51;;;;;;;;;;;6.90;99.90;;;;;;5105787;28;20437;-74
2023/01/26 05:55:17;;;;;;;;;;;7.00;99.90;;;;;;5085220;28;19915;-77
2023/01/26 05:57:43;;;;;;;;;;;6.90;99.90;;;;;;5062082;28;19907;-76
2023/01/26 06:00:11;;;;;;;;;;;7.00;99.90;;;;;;5093874;28;20304;-71
2023/01/26 06:02:37;;;;;;;;;;;6.90;99.90;;;;;;5092946;28;19980;-77
2023/01/26 06:05:04;;;;;;;;;;;6.80;99.90;;;;;;5093291;28;19961;-77
2023/01/26 06:07:30;;;;;;;;;;;6.80;99.90;;;;;;5075170;28;19912;-77
2023/01/26 06:09:57;;;;;;;;;;;6.80;99.90;;;;;;5075714;28;20318;-78
2023/01/26 06:12:24;;;;;;;;;;;6.80;99.90;;;;;;5075430;28;20280;-80
2023/01/26 06:14:50;;;;;;;;;;;6.80;99.90;;;;;;5102376;28;19915;-80
2023/01/26 06:17:16;;;;;;;;;;;6.90;99.90;;;;;;5093547;28;19913;-79
2023/01/26 06:19:43;;;;;;;;;;;6.90;99.90;;;;;;5093455;28;19908;-79
2023/01/26 06:22:09;;;;;;;;;;;7.00;99.90;;;;;;5093678;28;19908;-81
2023/01/26 06:24:35;;;;;;;;;;;7.10;99.90;;;;;;5093463;28;19916;-80
2023/01/26 06:27:02;;;;;;;;;;;7.30;99.90;;;;;;5093823;28;20393;-80
2023/01/26 06:29:28;;;;;;;;;;;7.30;99.90;;;;;;5075369;28;20279;-80
2023/01/26 06:31:54;;;;;;;;;;;7.40;99.90;;;;;;5092878;28;20376;-81
2023/01/26 06:34:20;;;;;;;;;;;7.50;99.90;;;;;;5092932;28;19909;-81
2023/01/26 06:36:47;;;;;;;;;;;7.80;99.90;;;;;;5093422;28;19989;-81
2023/01/26 06:39:15;;;;;;;;;;;8.30;99.90;;;;;;5093310;28;20364;-81
2023/01/26 06:41:43;;;;;;;;;;;8.80;99.90;;;;;;5093236;28;19908;-78
2023/01/26 06:44:09;;;;;;;;;;;8.80;99.90;;;;;;5075087;28;19974;-81
2023/01/26 06:46:35;;;;;;;;;;;9.30;99.90;;;;;;5095833;28;19908;-81
2023/01/26 06:49:03;;;;;;;;;;;10.00;99.90;;;;;;5096486;28;19909;-81
2023/01/26 06:51:42;;;;;;;;;;;10.50;99.90;;;;;;5095985;28;20390;-81
2023/01/26 06:54:09;;;;;;;;;;;10.40;99.90;;;;;;5077378;28;19918;-81
2023/01/26 06:56:35;;;;;;;;;;;10.50;99.90;;;;;;5084247;28;19953;-81
2023/01/26 06:59:00;;;;;;;;;;;10.40;99.90;;;;;;5096076;28;19974;-82
2023/01/26 07:01:27;;;;;;;;;;;10.30;99.90;;;;;;5095612;28;20374;-81
2023/01/26 07:03:53;;;;;;;;;;;9.90;99.90;;;;;;5094865;28;20328;-81
2023/01/26 07:06:19;;;;;;;;;;;9.40;99.90;;;;;;5095752;28;20421;-78
2023/01/26 07:08:45;;;;;;;;;;;9.10;99.90;;;;;;5096077;28;19908;-81
2023/01/26 07:11:11;;;;;;;;;;;9.10;99.90;;;;;;5095844;28;20271;-80
2023/01/26 07:13:37;;;;;;;;;;;9.10;99.90;;;;;;5095633;28;19909;-81
2023/01/26 07:16:05;;;;;;;;;;;9.00;99.90;;;;;;5115608;28;19908;-81
2023/01/26 07:18:31;;;;;;;;;;;9.00;99.90;;;;;;5116181;28;20228;-81
2023/01/26 07:21:01;;;;;;;;;;;8.90;99.90;;;;;;5116503;28;20238;-81
2023/01/26 07:23:27;;;;;;;;;;;9.00;99.90;;;;;;5116261;28;19915;-80
2023/01/26 07:25:52;;;;;;;;;;;8.90;99.90;;;;;;5116413;28;19907;-81
2023/01/26 07:28:18;;;;;;;;;;;8.90;99.90;;;;;;5116388;28;20006;-81
2023/01/26 07:30:44;;;;;;;;;;;8.80;99.90;;;;;;5116111;28;20262;-81
2023/01/26 07:33:10;;;;;;;;;;;8.80;99.90;;;;;;5116607;28;19915;-80
2023/01/26 07:35:36;;;;;;;;;;;8.80;99.90;;;;;;5116309;28;20335;-80
2023/01/26 07:38:04;;;;;;;;;;;8.80;99.90;;;;;;5116965;28;19953;-80
2023/01/26 07:40:30;;;;;;;;;;;8.80;99.90;;;;;;5097699;28;19915;-80
2023/01/26 07:42:57;;;;;;;;;;;8.70;99.90;;;;;;5116436;28;19911;-81
2023/01/26 07:45:23;;;;;;;;;;;8.60;99.90;;;;;;5097587;28;19919;-79
2023/01/26 07:48:07;;;;;;;;;;;8.60;99.90;;;;;;5111049;28;19908;-76
2023/01/26 07:50:33;;;;;;;;;;;8.60;99.90;;;;;;5055344;28;19920;-79
2023/01/26 07:53:00;;;;;;;;;;;8.70;99.90;;;;;;5069642;28;19956;-78
2023/01/26 07:55:26;;;;;;;;;;;8.70;99.90;;;;;;5052428;28;19920;-78
2023/01/26 07:57:51;;;;;;;;;;;8.80;99.90;;;;;;5052753;28;19916;-79
2023/01/26 08:00:17;;;;;;;;;;;8.90;99.90;;;;;;5052413;28;20276;-78
2023/01/26 08:02:43;;;;;;;;;;;8.90;99.90;;;;;;5052256;28;19948;-78
2023/01/26 08:05:10;;;;;;;;;;;8.90;99.90;;;;;;5052879;28;20010;-79
2023/01/26 08:07:37;;;;;;;;;;;8.90;99.90;;;;;;5051151;28;20360;-78
2023/01/26 08:10:03;;;;;;;;;;;9.00;99.90;;;;;;5068137;28;20429;-78
2023/01/26 08:12:28;;;;;;;;;;;8.90;99.90;;;;;;5070849;28;19940;-78
2023/01/26 08:14:54;;;;;;;;;;;9.00;99.90;;;;;;5064648;28;20303;-79
2023/01/26 08:17:20;;;;;;;;;;;9.00;99.90;;;;;;5093361;28;19908;-78
2023/01/26 08:19:46;;;;;;;;;;;8.90;99.90;;;;;;5092986;28;20422;-78
2023/01/26 08:22:12;;;;;;;;;;;8.90;99.90;;;;;;5075829;28;19954;-78
2023/01/26 08:24:37;;;;;;;;;;;9.00;99.90;;;;;;5075657;28;19916;-79
2023/01/26 08:27:04;;;;;;;;;;;9.10;99.90;;;;;;5092509;28;19915;-79
2023/01/26 08:29:30;;;;;;;;;;;9.30;99.90;;;;;;5092800;28;19959;-79
2023/01/26 08:31:55;;;;;;;;;;;9.30;99.90;;;;;;5092553;28;20336;-79
2023/01/26 08:34:21;;;;;;;;;;;8.80;99.90;;;;;;5075075;28;19954;-78
2023/01/26 08:36:47;;;;;;;;;;;8.70;99.90;;;;;;5092241;28;20301;-76
2023/01/26 08:39:13;;;;;;;;;;;8.60;99.90;;;;;;5092330;28;19912;-80
2023/01/26 08:41:39;;;;;;;;;;;8.50;99.90;;;;;;5092137;28;19909;-80
2023/01/26 08:44:06;;;;;;;;;;;8.60;99.90;;;;;;5092715;28;20420;-80
2023/01/26 08:46:31;;;;;;;;;;;8.70;99.90;;;;;;5092215;28;20283;-79
2023/01/26 08:48:58;;;;;;;;;;;8.90;99.90;;;;;;5091662;28;20372;-78
2023/01/26 08:51:24;;;;;;;;;;;8.70;99.90;;;;;;5091902;28;19956;-80
2023/01/26 08:53:50;;;;;;;;;;;8.90;99.90;;;;;;5074470;28;19908;-79
2023/01/26 08:56:16;;;;;;;;;;;9.20;99.90;;;;;;5091312;28;19908;-79
2023/01/26 08:58:42;;;;;;;;;;;9.40;99.90;;;;;;5091451;28;19939;-73
2023/01/26 09:01:09;;;;;;;;;;;9.60;99.90;;;;;;5091234;28;19930;-80
2023/01/26 09:03:36;;;;;;;;;;;9.70;99.90;;;;;;5091021;28;20015;-80
2023/01/26 09:06:03;;;;;;;;;;;9.70;99.90;;;;;;5091242;28;19908;-79
2023/01/26 09:08:29;;;;;;;;;;;9.60;99.90;;;;;;5090974;28;19908;-79
2023/01/26 09:10:55;;;;;;;;;;;9.60;99.90;;;;;;5091306;28;19915;-75
2023/01/26 09:13:21;;;;;;;;;;;9.80;99.90;;;;;;5073581;28;19908;-79
2023/01/26 09:15:46;;;;;;;;;;;9.90;99.90;;;;;;5090971;28;19938;-81
2023/01/26 09:18:12;;;;;;;;;;;10.10;99.90;;;;;;5090781;28;19912;-78
2023/01/26 09:20:38;;;;;;;;;;;10.10;99.90;;;;;;5092044;28;19908;-78
2023/01/26 09:23:04;;;;;;;;;;;10.20;99.90;;;;;;5093939;28;19908;-77
2023/01/26 09:25:30;;;;;;;;;;;10.20;99.90;;;;;;5093367;28;20280;-77
2023/01/26 09:27:57;;;;;;;;;;;10.10;99.90;;;;;;5093793;28;19911;-78
2023/01/26 09:30:26;;;;;;;;;;;10.30;99.90;;;;;;5093498;28;20010;-78
2023/01/26 09:32:52;;;;;;;;;;;10.40;99.90;;;;;;5093602;28;20029;-79
2023/01/26 09:35:18;;;;;;;;;;;10.90;99.90;;;;;;5092098;28;20240;-78
2023/01/26 09:37:43;;;;;;;;;;;11.40;99.90;;;;;;5092950;28;20364;-78
2023/01/26 09:40:18;;;;;;;;;;;11.50;99.90;;;;;;5091592;28;19908;-78
2023/01/26 09:42:44;;;;;;;;;;;11.80;99.90;;;;;;5092853;28;19908;-78
2023/01/26 09:45:13;;;;;;;;;;;12.10;99.90;;;;;;5080916;28;19958;-79
2023/01/26 09:47:57;;;;;;;;;;;12.50;99.90;;;;;;5073201;28;19994;-79
2023/01/26 09:50:26;;;;;;;;;;;12.30;99.90;;;;;;5071280;28;19995;-78
2023/01/26 09:52:51;;;;;;;;;;;12.60;99.90;;;;;;5073205;28;19962;-78
2023/01/26 09:55:19;;;;;;;;;;;13.00;99.90;;;;;;5073383;28;19908;-76
2023/01/26 09:58:21;;;;;;;;;;;13.20;99.90;;;;;;5073184;28;19909;-79
2023/01/26 10:00:52;;;;;;;;;;;12.70;99.90;;;;;;5091197;28;19919;-78
2023/01/26 10:03:34;;;;;;;;;;;12.90;99.90;;;;;;5080981;28;19924;-78
2023/01/26 10:06:05;;;;;;;;;;;13.20;99.90;;;;;;5092742;28;20002;-79
2023/01/26 10:08:30;;;;;;;;;;;13.10;99.90;;;;;;5092671;28;19908;-78
2023/01/26 10:11:00;;;;;;;;;;;12.30;99.90;;;;;;5092720;28;19918;-79
2023/01/26 10:13:28;;;;;;;;;;;12.20;99.90;;;;;;5074437;28;20581;-79
2023/01/26 10:16:02;;;;;;;;;;;12.20;99.90;;;;;;5111533;28;19907;-79
2023/01/26 10:18:31;;;;;;;;;;;12.40;99.90;;;;;;5112917;28;19947;-79
2023/01/26 10:20:58;;;;;;;;;;;12.70;99.90;;;;;;5116369;28;20334;-77
2023/01/26 10:23:29;;;;;;;;;;;13.00;99.90;;;;;;5116999;28;20359;-78
2023/01/26 10:26:01;;;;;;;;;;;12.90;99.90;;;;;;5116810;28;19908;-78
2023/01/26 10:28:33;;;;;;;;;;;12.90;99.90;;;;;;5117462;28;20363;-77
2023/01/26 10:31:01;;;;;;;;;;;13.40;99.90;;;;;;5116937;28;20002;-78
2023/01/26 10:33:33;;;;;;;;;;;13.90;99.90;;;;;;5098416;28;19919;-78
2023/01/26 10:36:00;;;;;;;;;;;14.40;99.90;;;;;;5117516;28;20018;-78
2023/01/26 10:38:31;;;;;;;;;;;14.80;99.90;;;;;;5116848;28;19951;-77
2023/01/26 10:40:58;;;;;;;;;;;15.00;99.90;;;;;;5116670;28;19908;-78
2023/01/26 10:43:25;;;;;;;;;;;14.80;99.90;;;;;;5117067;28;20379;-79
2023/01/26 10:45:51;;;;;;;;;;;14.80;99.90;;;;;;5116877;28;19939;-77
2023/01/26 10:48:23;;;;;;;;;;;14.70;99.90;;;;;;5117029;28;19919;-78
2023/01/26 10:50:49;;;;;;;;;;;14.60;99.90;;;;;;5116789;28;19966;-78
2023/01/26 10:53:28;;;;;;;;;;;14.50;99.90;;;;;;5098669;28;20003;-78
2023/01/26 10:56:12;;;;;;;;;;;14.50;99.90;;;;;;5116891;28;19908;-78
2023/01/26 10:58:46;;;;;;;;;;;14.60;99.90;;;;;;5116061;28;19914;-78
2023/01/26 11:01:14;;;;;;;;;;;14.50;99.90;;;;;;5116489;28;19937;-78
2023/01/26 11:03:40;;;;;;;;;;;14.60;99.90;;;;;;5116088;28;19959;-77
2023/01/26 11:06:13;;;;;;;;;;;14.50;99.90;;;;;;5116591;28;20003;-79
2023/01/26 11:08:39;;;;;;;;;;;14.70;99.90;;;;;;5098201;28;19958;-78
2023/01/26 11:11:09;;;;;;;;;;;14.90;99.90;;;;;;5097910;28;19915;-78
2023/01/26 11:13:35;;;;;;;;;;;15.00;99.90;;;;;;5097909;28;19998;-78
2023/01/26 11:16:18;;;;;;;;;;;14.80;99.90;;;;;;5116227;28;20414;-79
2023/01/26 11:18:45;;;;;;;;;;;14.50;99.90;;;;;;5115948;28;19907;-80
2023/01/26 11:21:30;;;;;;;;;;;14.70;99.90;;;;;;5116414;28;20052;-78
2023/01/26 11:23:59;;;;;;;;;;;14.80;99.90;;;;;;5115766;28;19915;-79
2023/01/26 11:26:44;;;;;;;;;;;15.00;99.90;;;;;;5116414;28;20244;-79
2023/01/26 11:29:28;;;;;;;;;;;14.90;99.90;;;;;;5115677;28;20329;-78
2023/01/26 11:31:54;;;;;;;;;;;14.80;99.90;;;;;;5115006;28;19960;-79
2023/01/26 11:34:31;;;;;;;;;;;14.80;99.90;;;;;;5114972;28;19908;-78
2023/01/26 11:37:05;;;;;;;;;;;14.80;99.90;;;;;;5115714;28;20419;-79
2023/01/26 11:39:34;;;;;;;;;;;15.00;99.90;;;;;;5115370;28;19914;-79
2023/01/26 11:42:18;;;;;;;;;;;15.20;99.90;;;;;;5112324;28;19957;-80
2023/01/26 11:45:09;;;;;;;;;;;15.20;99.90;;;;;;5094470;28;19985;-76
2023/01/26 11:47:48;;;;;;;;;;;14.80;99.90;;;;;;5080214;28;19955;-80
2023/01/26 11:50:14;;;;;;;;;;;14.90;99.90;;;;;;5088115;28;19986;-79
2023/01/26 11:52:47;;;;;;;;;;;15.20;99.90;;;;;;5088789;28;19908;-78
2023/01/26 11:55:17;;;;;;;;;;;14.90;99.90;;;;;;5094902;28;20383;-79
2023/01/26 11:57:58;;;;;;;;;;;14.50;99.90;;;;;;5094662;28;20249;-78
2023/01/26 12:00:29;;;;;;;;;;;14.60;99.90;;;;;;5094833;28;20008;-79
2023/01/26 12:03:00;;;;;;;;;;;14.70;99.90;;;;;;5094459;28;20061;-79
2023/01/26 12:05:44;;;;;;;;;;;15.10;99.90;;;;;;5093516;28;20427;-77
2023/01/26 12:08:16;;;;;;;;;;;15.30;99.90;;;;;;5075982;28;19908;-78
2023/01/26 12:11:25;;;;;;;;;;;15.30;99.90;;;;;;5094603;28;19909;-74
2023/01/26 12:13:57;;;;;;;;;;;15.40;99.90;;;;;;5095379;28;19938;-79
2023/01/26 12:16:30;;;;;;;;;;;15.40;99.90;;;;;;5114937;28;19908;-79
2023/01/26 12:19:02;;;;;;;;;;;15.50;99.90;;;;;;5115062;28;20313;-79
2023/01/26 12:21:29;;;;;;;;;;;15.70;99.90;;;;;;5115508;28;20346;-78
2023/01/26 12:23:55;;;;;;;;;;;16.00;99.90;;;;;;5115049;28;19922;-78
2023/01/26 12:26:23;;;;;;;;;;;16.00;99.90;;;;;;5115196;28;19916;-79
2023/01/26 12:28:53;;;;;;;;;;;16.10;99.90;;;;;;5095817;28;19918;-78
2023/01/26 12:31:25;;;;;;;;;;;15.50;99.90;;;;;;5094874;28;19952;-79
2023/01/26 12:33:53;;;;;;;;;;;14.90;99.90;;;;;;5094689;28;19908;-79
2023/01/26 12:36:19;;;;;;;;;;;14.30;99.90;;;;;;5094660;28;19908;-79
2023/01/26 12:38:48;;;;;;;;;;;13.80;99.90;;;;;;5094882;28;20284;-78
2023/01/26 12:41:33;;;;;;;;;;;13.50;99.90;;;;;;5094857;28;19914;-77
2023/01/26 12:44:07;;;;;;;;;;;13.40;99.90;;;;;;5091674;28;19924;-78
2023/01/26 12:46:37;;;;;;;;;;;13.60;99.90;;;;;;5086045;28;19912;-78
2023/01/26 12:49:09;;;;;;;;;;;13.10;99.90;;;;;;5093406;28;19908;-78
2023/01/26 12:51:38;;;;;;;;;;;13.20;99.90;;;;;;5093880;28;19908;-78
2023/01/26 12:54:36;;;;;;;;;;;13.70;99.90;;;;;;5094032;28;20011;-80
2023/01/26 12:57:04;;;;;;;;;;;13.30;99.90;;;;;;5015290;28;19932;-78
2023/01/26 12:59:33;;;;;;;;;;;13.50;99.90;;;;;;5030814;28;19921;-78
2023/01/26 13:02:08;;;;;;;;;;;13.80;99.90;;;;;;5013806;28;19909;-78
2023/01/26 13:04:34;;;;;;;;;;;14.00;99.90;;;;;;5030822;28;20416;-79
2023/01/26 13:07:16;;;;;;;;;;;14.20;99.90;;;;;;5031706;28;20011;-77
2023/01/26 13:10:02;;;;;;;;;;;14.30;99.90;;;;;;5031776;28;19917;-73
2023/01/26 13:12:48;;;;;;;;;;;14.40;99.90;;;;;;5031474;28;19909;-78
2023/01/26 13:15:15;;;;;;;;;;;14.30;99.90;;;;;;5030799;28;19909;-69
2023/01/26 13:17:51;;;;;;;;;;;14.40;99.90;;;;;;5031870;28;19994;-71
2023/01/26 13:20:24;;;;;;;;;;;14.20;99.90;;;;;;5031423;28;20404;-72
2023/01/26 13:22:51;;;;;;;;;;;14.10;99.90;;;;;;5032406;28;19952;-71
2023/01/26 13:25:18;;;;;;;;;;;13.90;99.90;;;;;;5031680;28;19933;-71
2023/01/26 13:27:46;;;;;;;;;;;13.70;99.90;;;;;;5031625;28;19909;-71
2023/01/26 13:30:35;;;;;;;;;;;13.60;99.90;;;;;;5031445;28;19909;-72
2023/01/26 13:33:04;;;;;;;;;;;13.30;99.90;;;;;;5054707;28;20364;-71
2023/01/26 13:35:30;;;;;;;;;;;13.30;99.90;;;;;;5073328;28;20268;-71
2023/01/26 13:38:14;;;;;;;;;;;13.20;99.90;;;;;;5073847;28;19909;-71
2023/01/26 13:40:45;;;;;;;;;;;13.20;99.90;;;;;;5073589;28;19915;-71
2023/01/26 13:43:14;;;;;;;;;;;13.30;99.90;;;;;;5078761;28;19908;-71
2023/01/26 13:45:41;;;;;;;;;;;13.30;99.90;;;;;;5110713;28;19911;-70
2023/01/26 13:48:15;;;;;;;;;;;13.20;99.90;;;;;;5095661;28;19912;-71
2023/01/26 13:50:41;;;;;;;;;;;13.10;99.90;;;;;;5113576;28;19912;-73
2023/01/26 13:53:26;;;;;;;;;;;13.10;99.90;;;;;;5113477;28;20003;-72
2023/01/26 13:55:56;;;;;;;;;;;13.00;99.90;;;;;;5113354;28;19915;-71
2023/01/26 13:58:22;;;;;;;;;;;13.00;99.90;;;;;;5095295;28;20410;-73
2023/01/26 14:01:05;;;;;;;;;;;12.80;99.90;;;;;;5095194;28;19908;-71
2023/01/26 14:03:33;;;;;;;;;;;12.70;99.90;;;;;;5113748;28;19935;-70
2023/01/26 14:06:22;;;;;;;;;;;12.70;99.90;;;;;;5112689;28;20164;-72
2023/01/26 14:08:51;;;;;;;;;;;12.80;99.90;;;;;;5114197;28;19915;-72
2023/01/26 14:11:21;;;;;;;;;;;12.80;99.90;;;;;;5095338;28;19933;-70
2023/01/26 14:13:57;;;;;;;;;;;12.80;99.90;;;;;;5113795;28;19934;-72
2023/01/26 14:16:26;;;;;;;;;;;12.80;99.90;;;;;;5113663;28;19999;-72
2023/01/26 14:19:02;;;;;;;;;;;12.80;99.90;;;;;;5114040;28;19999;-72
2023/01/26 14:21:28;;;;;;;;;;;12.90;99.90;;;;;;5114252;28;19916;-70
2023/01/26 14:23:57;;;;;;;;;;;12.80;99.90;;;;;;5114519;28;19941;-72
2023/01/26 14:26:23;;;;;;;;;;;12.80;99.90;;;;;;5113849;28;19915;-70
2023/01/26 14:28:49;;;;;;;;;;;12.80;99.90;;;;;;5114115;28;19908;-73
2023/01/26 14:31:19;;;;;;;;;;;12.70;99.90;;;;;;5113935;28;20035;-73
2023/01/26 14:33:46;;;;;;;;;;;12.70;99.90;;;;;;5113731;28;19965;-72
2023/01/26 14:36:17;;;;;;;;;;;12.80;99.90;;;;;;5113723;28;19908;-73
2023/01/26 14:38:54;;;;;;;;;;;12.70;99.90;;;;;;5113753;28;19908;-72
2023/01/26 14:41:23;;;;;;;;;;;12.80;99.90;;;;;;5114407;28;19908;-72
2023/01/26 14:43:53;;;;;;;;;;;12.70;99.90;;;;;;5095163;28;19937;-72
2023/01/26 14:46:39;;;;;;;;;;;12.60;99.90;;;;;;5114402;28;19951;-72
2023/01/26 14:49:28;;;;;;;;;;;12.50;99.90;;;;;;5081111;28;20264;-73
2023/01/26 14:51:55;;;;;;;;;;;12.40;99.90;;;;;;5102296;28;19914;-72
2023/01/26 14:54:24;;;;;;;;;;;12.40;99.90;;;;;;5113767;28;19908;-73
2023/01/26 14:56:50;;;;;;;;;;;12.50;99.90;;;;;;5113084;28;20018;-71
2023/01/26 14:59:19;;;;;;;;;;;12.50;99.90;;;;;;5113320;28;19939;-72
2023/01/26 15:01:46;;;;;;;;;;;12.60;99.90;;;;;;5113149;28;19908;-71
2023/01/26 15:04:47;;;;;;;;;;;12.60;99.90;;;;;;5112631;28;20291;-73
2023/01/26 15:07:28;;;;;;;;;;;12.50;99.90;;;;;;5015777;28;19913;-73
2023/01/26 15:09:54;;;;;;;;;;;12.40;99.90;;;;;;5035086;28;19990;-73
2023/01/26 15:12:20;;;;;;;;;;;12.30;99.90;;;;;;5034232;28;19976;-72
2023/01/26 15:14:54;;;;;;;;;;;12.30;99.90;;;;;;5025138;28;19913;-73
2023/01/26 15:17:35;;;;;;;;;;;12.30;99.90;;;;;;4997710;28;20024;-73
2023/01/26 15:20:01;;;;;;;;;;;12.50;99.90;;;;;;5013826;28;20282;-73
2023/01/26 15:22:27;;;;;;;;;;;12.40;99.90;;;;;;5013989;28;19914;-69
2023/01/26 15:25:00;;;;;;;;;;;12.40;99.90;;;;;;5013948;28;20270;-72